Time;durP1;ratioP1;P1;durP2;ratioP2;P2;SDS_P1;SDS_P2;PMS_P1;PMS_P2;Temp;Humidity;BMP_temperature;BMP_pressure;BME280_temperature;BME280_humidity;BME280_pressure;Samples;Min_cycle;Max_cycle;Signal;HPM_P1;HPM_P2
2024/02/20 00:00:24;;;;;;;4.10;2.60;;;;;;;5.41;80.91;101111.95;104565;1260;137348;-62
2024/02/20 00:03:11;;;;;;;4.30;3.00;;;;;;;5.38;81.06;101106.95;104760;1257;75243;-62
2024/02/20 00:05:38;;;;;;;3.70;2.60;;;;;;;5.36;81.01;101109.27;104592;1261;138196;-62
2024/02/20 00:08:05;;;;;;;4.10;2.50;;;;;;;5.34;81.10;101110.20;104633;1258;71632;-62
2024/02/20 00:10:32;;;;;;;3.90;2.70;;;;;;;5.33;81.16;101112.75;104913;1258;60516;-62
2024/02/20 00:12:59;;;;;;;4.90;2.80;;;;;;;5.31;81.18;101119.77;104873;1257;138580;-61
2024/02/20 00:15:26;;;;;;;4.50;2.70;;;;;;;5.29;81.26;101124.03;104833;1261;73049;-62
2024/02/20 00:17:53;;;;;;;5.80;2.90;;;;;;;5.29;81.39;101118.83;104582;1258;138238;-62
2024/02/20 00:20:19;;;;;;;5.00;3.00;;;;;;;5.31;81.44;101125.19;108835;1257;72482;-62
2024/02/20 00:22:46;;;;;;;3.80;2.60;;;;;;;5.33;81.57;101123.21;108770;1257;138313;-62
2024/02/20 00:25:13;;;;;;;3.00;2.40;;;;;;;5.37;81.45;101122.53;108918;1258;59955;-62
2024/02/20 00:27:39;;;;;;;4.20;2.80;;;;;;;5.39;81.51;101121.59;108886;1257;75786;-62
2024/02/20 00:30:07;;;;;;;4.00;2.70;;;;;;;5.41;81.51;101125.90;108781;1257;139696;-62
2024/02/20 00:32:33;;;;;;;4.20;3.00;;;;;;;5.42;81.42;101126.50;108827;1255;72954;-62
2024/02/20 00:35:00;;;;;;;3.60;2.20;;;;;;;5.43;81.47;101124.09;108790;1257;138530;-62
2024/02/20 00:37:27;;;;;;;2.60;2.40;;;;;;;5.46;81.51;101123.89;108872;1257;61421;-62
2024/02/20 00:39:54;;;;;;;4.70;3.20;;;;;;;5.48;81.37;101124.48;108941;1258;75170;-61
2024/02/20 00:42:21;;;;;;;4.00;2.80;;;;;;;5.50;81.46;101125.83;108766;1258;138098;-62
2024/02/20 00:44:47;;;;;;;3.50;2.60;;;;;;;5.51;81.37;101120.66;108905;1256;71716;-62
2024/02/20 00:47:14;;;;;;;4.00;3.50;;;;;;;5.51;81.35;101120.98;108750;1257;138356;-61
2024/02/20 00:49:41;;;;;;;3.20;2.70;;;;;;;5.52;81.42;101119.66;108867;1257;58505;-61
2024/02/20 00:52:08;;;;;;;5.10;3.40;;;;;;;5.53;81.41;101118.65;108909;1257;72554;-62
2024/02/20 00:54:40;;;;;;;2.40;1.80;;;;;;;5.53;81.38;101122.84;108821;1257;137711;-62
2024/02/20 00:57:09;;;;;;;6.70;3.30;;;;;;;5.53;81.34;101122.65;108930;1258;72941;-62
2024/02/20 00:59:35;;;;;;;7.00;4.10;;;;;;;5.54;81.41;101121.66;108772;1258;138530;-62
2024/02/20 01:02:02;;;;;;;9.80;5.60;;;;;;;5.52;81.42;101120.54;108878;1258;60369;-62
2024/02/20 01:04:29;;;;;;;6.70;4.50;;;;;;;5.51;81.39;101120.12;108796;1257;73854;-62
2024/02/20 01:06:56;;;;;;;6.80;3.70;;;;;;;5.50;81.43;101122.00;108861;1257;137795;-62
2024/02/20 01:09:23;;;;;;;4.30;3.10;;;;;;;5.50;81.47;101119.70;106707;1259;72700;-62
2024/02/20 01:11:49;;;;;;;4.20;3.00;;;;;;;5.51;81.54;101121.67;108719;1258;137925;-62
2024/02/20 01:14:16;;;;;;;5.20;4.30;;;;;;;5.51;81.58;101119.80;108891;1257;58661;-62
2024/02/20 01:16:43;;;;;;;4.60;3.20;;;;;;;5.54;81.77;101116.45;108757;1258;138074;-63
2024/02/20 01:19:10;;;;;;;3.70;2.20;;;;;;;5.56;81.75;101117.09;108968;1258;65141;-63
2024/02/20 01:21:36;;;;;;;6.60;3.80;;;;;;;5.58;81.78;101119.30;108864;1258;70696;-62
2024/02/20 01:24:03;;;;;;;5.30;3.40;;;;;;;5.60;81.68;101116.77;108741;1257;138122;-63
2024/02/20 01:26:31;;;;;;;5.60;2.80;;;;;;;5.62;81.68;101117.23;108870;1257;63976;-63
2024/02/20 01:28:57;;;;;;;5.30;3.00;;;;;;;5.63;81.63;101115.52;108795;1258;139077;-63
2024/02/20 01:31:25;;;;;;;6.10;3.40;;;;;;;5.66;81.74;101117.77;108943;1258;65161;-63
2024/02/20 01:33:53;;;;;;;4.70;3.00;;;;;;;5.69;81.72;101116.48;108838;1261;83183;-63
2024/02/20 01:36:20;;;;;;;4.80;3.00;;;;;;;5.72;81.78;101117.00;108770;1256;138740;-63
2024/02/20 01:38:46;;;;;;;6.10;4.60;;;;;;;5.73;81.75;101116.73;108857;1255;60377;-63
2024/02/20 01:41:13;;;;;;;8.80;4.80;;;;;;;5.77;81.81;101112.55;108780;1255;139067;-63
2024/02/20 01:43:40;;;;;;;7.80;6.30;;;;;;;5.79;81.75;101112.67;108917;1259;66033;-63
2024/02/20 01:46:07;;;;;;;5.60;4.30;;;;;;;5.78;81.64;101111.56;108927;1256;74402;-63
2024/02/20 01:48:34;;;;;;;4.60;3.50;;;;;;;5.77;81.69;101109.63;108670;1259;139219;-63
2024/02/20 01:51:00;;;;;;;5.30;3.20;;;;;;;5.77;81.66;101110.14;108862;1258;59843;-62
2024/02/20 01:53:28;;;;;;;7.50;4.70;;;;;;;5.76;81.71;101108.70;108753;1256;139139;-62
2024/02/20 01:55:55;;;;;;;14.40;12.00;;;;;;;5.78;81.72;101104.76;108945;1258;65826;-62
2024/02/20 01:58:21;;;;;;;14.20;12.00;;;;;;;5.77;81.70;101103.53;108846;1258;71991;-62
2024/02/20 02:00:48;;;;;;;13.50;11.00;;;;;;;5.78;81.83;101106.86;108768;1259;139469;-62
2024/02/20 02:03:15;;;;;;;18.20;16.30;;;;;;;5.79;81.82;101105.19;108934;1257;59409;-62
2024/02/20 02:05:41;;;;;;;13.80;12.40;;;;;;;5.80;81.90;101104.89;108776;1257;137902;-62
2024/02/20 02:08:14;;;;;;;12.90;11.40;;;;;;;5.79;81.77;101105.70;108900;1260;66081;-62
2024/02/20 02:10:41;;;;;;;14.90;12.30;;;;;;;5.78;81.83;101105.27;108751;1257;138899;-62
2024/02/20 02:13:08;;;;;;;7.80;5.60;;;;;;;5.77;81.88;101105.60;108845;1259;63180;-62
2024/02/20 02:15:35;;;;;;;4.60;4.10;;;;;;;5.76;81.77;101105.34;108894;1258;61320;-62
2024/02/20 02:18:01;;;;;;;4.70;2.80;;;;;;;5.77;81.96;101104.55;108789;1257;138877;-62
2024/02/20 02:20:28;;;;;;;3.80;2.50;;;;;;;5.78;81.95;101102.52;108883;1260;67417;-62
2024/02/20 02:22:55;;;;;;;2.80;2.40;;;;;;;5.78;82.04;101102.30;108762;1258;138497;-63
2024/02/20 02:25:24;;;;;;;2.70;2.10;;;;;;;5.79;81.98;101101.70;108876;1257;59039;-63
2024/02/20 02:27:50;;;;;;;4.70;2.60;;;;;;;5.80;81.99;101099.81;108882;1257;58806;-62
2024/02/20 02:30:17;;;;;;;2.80;2.50;;;;;;;5.79;81.88;101101.17;108783;1258;139119;-62
2024/02/20 02:32:44;;;;;;;5.40;2.90;;;;;;;5.78;81.90;101100.61;108916;1257;66850;-62
2024/02/20 02:35:11;;;;;;;9.30;7.10;;;;;;;5.77;81.87;101099.33;108759;1259;139064;-62
2024/02/20 02:37:38;;;;;;;25.10;22.40;;;;;;;5.75;81.85;101099.94;108909;1258;59521;-62
2024/02/20 02:40:05;;;;;;;13.30;11.30;;;;;;;5.73;81.89;101098.27;108966;1257;61230;-62
2024/02/20 02:42:32;;;;;;;8.40;7.60;;;;;;;5.72;81.97;101098.21;108736;1257;138906;-62
2024/02/20 02:44:59;;;;;;;6.20;5.60;;;;;;;5.72;81.90;101098.56;108870;1259;64914;-63
2024/02/20 02:47:25;;;;;;;5.20;4.60;;;;;;;5.69;81.93;101095.78;108732;1258;138691;-63
2024/02/20 02:49:52;;;;;;;5.40;4.20;;;;;;;5.67;81.91;101099.34;108869;1258;58168;-63
2024/02/20 02:52:19;;;;;;;4.30;3.60;;;;;;;5.64;81.81;101097.98;108917;1259;58900;-63
2024/02/20 02:54:46;;;;;;;4.80;3.20;;;;;;;5.62;81.98;101096.31;108724;1263;138521;-62
2024/02/20 02:57:13;;;;;;;4.50;3.30;;;;;;;5.61;82.04;101094.71;108870;1258;66387;-63
2024/02/20 02:59:40;;;;;;;4.60;4.10;;;;;;;5.62;82.06;101097.71;108730;1259;138011;-63
2024/02/20 03:02:10;;;;;;;6.80;5.80;;;;;;;5.62;82.11;101098.39;108932;1256;58309;-63
2024/02/20 03:04:36;;;;;;;6.80;5.70;;;;;;;5.60;82.07;101099.17;107767;1260;60090;-62
2024/02/20 03:07:04;;;;;;;4.80;4.10;;;;;;;5.60;82.07;101096.38;104713;1261;137479;-61
2024/02/20 03:09:31;;;;;;;4.00;3.50;;;;;;;5.59;82.28;101094.30;104790;1260;66662;-62
2024/02/20 03:11:58;;;;;;;5.00;3.80;;;;;;;5.62;82.39;101097.38;104751;1259;137830;-61
2024/02/20 03:14:24;;;;;;;6.80;3.70;;;;;;;5.62;82.39;101098.23;104673;1261;60460;-62
2024/02/20 03:16:51;;;;;;;4.00;3.60;;;;;;;5.61;82.44;101097.14;104757;1261;138598;-61
2024/02/20 03:19:18;;;;;;;3.70;3.10;;;;;;;5.60;82.37;101096.40;104855;1262;74790;-62
2024/02/20 03:21:44;;;;;;;5.90;4.50;;;;;;;5.59;82.48;101097.74;104732;1257;66515;-62
2024/02/20 03:24:11;;;;;;;5.20;3.90;;;;;;;5.58;82.51;101098.92;104586;1256;138932;-62
2024/02/20 03:26:39;;;;;;;4.60;3.30;;;;;;;5.59;82.70;101094.42;104763;1261;60083;-62
2024/02/20 03:29:07;;;;;;;4.30;3.70;;;;;;;5.58;82.59;101095.59;104669;1262;138566;-62
2024/02/20 03:31:34;;;;;;;4.60;3.20;;;;;;;5.57;82.62;101098.67;104767;1263;75191;-64
2024/02/20 03:34:01;;;;;;;5.30;3.70;;;;;;;5.56;82.58;101096.89;104822;1258;66889;-62
2024/02/20 03:36:28;;;;;;;3.30;3.00;;;;;;;5.55;82.64;101101.38;108696;1261;139507;-62
2024/02/20 03:38:55;;;;;;;4.70;3.40;;;;;;;5.57;82.75;101099.89;108872;1261;59493;-63
2024/02/20 03:41:21;;;;;;;4.00;3.10;;;;;;;5.56;82.63;101102.12;108753;1257;138806;-62
2024/02/20 03:43:48;;;;;;;3.60;3.00;;;;;;;5.57;82.69;101104.29;108866;1257;74238;-62
2024/02/20 03:46:15;;;;;;;4.00;2.80;;;;;;;5.60;82.70;101105.27;108986;1257;66096;-62
2024/02/20 03:48:41;;;;;;;3.50;2.80;;;;;;;5.61;82.64;101105.88;108905;1257;138302;-62
2024/02/20 03:51:09;;;;;;;5.40;3.30;;;;;;;5.63;82.72;101105.09;104927;1259;61280;-62
2024/02/20 03:53:36;;;;;;;3.60;2.60;;;;;;;5.65;82.63;101104.31;104673;1261;138163;-63
2024/02/20 03:56:03;;;;;;;3.20;2.80;;;;;;;5.64;82.61;101103.92;104916;1262;75968;-62
2024/02/20 03:58:29;;;;;;;3.90;2.90;;;;;;;5.62;82.57;101107.83;104768;1261;66680;-63
2024/02/20 04:00:56;;;;;;;4.70;3.30;;;;;;;5.63;82.71;101112.89;104756;1269;138236;-63
2024/02/20 04:03:23;;;;;;;6.70;3.40;;;;;;;5.62;82.73;101114.43;105023;1261;61361;-63
2024/02/20 04:05:50;;;;;;;16.20;10.10;;;;;;;5.61;82.78;101120.98;104869;1257;138670;-61
2024/02/20 04:08:17;;;;;;;19.70;13.20;;;;;;;5.61;82.90;101121.55;108022;1258;74904;-62
2024/02/20 04:10:43;;;;;;;16.30;10.40;;;;;;;5.61;82.97;101117.20;104823;1262;138742;-62
2024/02/20 04:13:10;;;;;;;9.90;7.20;;;;;;;5.61;82.87;101118.93;104644;1257;73247;-70
2024/02/20 04:15:37;;;;;;;8.90;6.50;;;;;;;5.58;82.77;101119.83;104794;1260;63605;-67
2024/02/20 04:18:04;;;;;;;6.20;3.80;;;;;;;5.53;82.72;101119.34;104743;1257;137976;-65
2024/02/20 04:20:31;;;;;;;4.70;3.80;;;;;;;5.48;82.81;101120.30;104791;1260;73643;-67
2024/02/20 04:22:57;;;;;;;6.10;3.70;;;;;;;5.44;82.89;101124.98;104663;1257;138206;-68
2024/02/20 04:25:24;;;;;;;4.00;3.30;;;;;;;5.40;82.93;101123.06;105009;1260;72938;-68
2024/02/20 04:27:51;;;;;;;6.40;4.20;;;;;;;5.36;82.98;101129.08;104822;1260;61699;-63
2024/02/20 04:30:18;;;;;;;3.00;2.20;;;;;;;5.31;83.05;101130.96;104825;1260;138010;-64
2024/02/20 04:32:45;;;;;;;2.40;1.90;;;;;;;5.30;83.29;101132.60;104855;1262;73726;-63
2024/02/20 04:35:12;;;;;;;1.80;1.50;;;;;;;5.29;83.38;101132.22;104774;1260;138957;-63
2024/02/20 04:37:39;;;;;;;2.10;1.20;;;;;;;5.29;83.58;101129.62;104820;1262;73881;-63
2024/02/20 04:40:07;;;;;;;1.70;1.20;;;;;;;5.31;83.70;101133.89;104708;1259;61349;-62
2024/02/20 04:42:34;;;;;;;0.80;0.80;;;;;;;5.32;83.69;101132.86;104677;1260;138187;-63
2024/02/20 04:45:01;;;;;;;1.10;0.90;;;;;;;5.31;83.74;101135.48;104932;1263;74064;-63
2024/02/20 04:47:30;;;;;;;1.40;1.00;;;;;;;5.34;83.89;101140.30;104797;1265;139209;-65
2024/02/20 04:49:57;;;;;;;1.60;1.20;;;;;;;5.36;83.87;101139.05;108933;1257;72539;-63
2024/02/20 04:52:24;;;;;;;1.30;0.90;;;;;;;5.40;83.90;101143.42;108963;1257;60319;-63
2024/02/20 04:54:52;;;;;;;0.90;0.90;;;;;;;5.44;83.97;101146.75;108879;1255;138259;-64
2024/02/20 04:57:19;;;;;;;1.10;0.90;;;;;;;5.48;83.92;101148.35;108970;1255;72820;-63
2024/02/20 04:59:46;;;;;;;0.80;0.80;;;;;;;5.53;83.92;101149.49;108838;1257;138822;-63
2024/02/20 05:02:12;;;;;;;2.10;1.20;;;;;;;5.59;83.92;101150.67;108928;1257;72313;-64
2024/02/20 05:04:39;;;;;;;1.40;1.00;;;;;;;5.63;83.82;101151.05;108921;1257;58912;-64
2024/02/20 05:07:06;;;;;;;3.10;1.30;;;;;;;5.67;83.76;101151.94;108947;1257;61618;-64
2024/02/20 05:09:32;;;;;;;1.40;1.00;;;;;;;5.72;83.74;101151.31;108950;1257;74505;-64
2024/02/20 05:11:59;;;;;;;1.70;1.20;;;;;;;5.75;83.69;101152.17;108862;1256;138144;-64
2024/02/20 05:14:26;;;;;;;3.20;1.50;;;;;;;5.80;83.71;101158.84;108920;1256;72687;-64
2024/02/20 05:16:53;;;;;;;2.90;1.40;;;;;;;5.84;83.70;101157.13;108863;1256;138418;-64
2024/02/20 05:19:19;;;;;;;2.70;1.50;;;;;;;5.86;83.63;101162.14;108978;1256;60797;-64
2024/02/20 05:21:46;;;;;;;2.60;1.30;;;;;;;5.87;83.49;101164.11;108961;1257;73529;-63
2024/02/20 05:24:13;;;;;;;2.90;1.50;;;;;;;5.92;83.56;101165.55;108797;1257;138423;-62
2024/02/20 05:26:39;;;;;;;8.60;5.40;;;;;;;5.94;83.50;101168.61;108754;1257;73459;-61
2024/02/20 05:29:06;;;;;;;6.00;4.10;;;;;;;5.94;83.40;101166.70;104601;1263;138556;-61
2024/02/20 05:31:33;;;;;;;3.90;2.30;;;;;;;5.96;83.50;101171.71;104786;1260;61470;-62
2024/02/20 05:34:00;;;;;;;3.50;1.80;;;;;;;5.99;83.56;101174.69;105020;1260;75437;-61
2024/02/20 05:36:31;;;;;;;3.00;1.50;;;;;;;6.01;83.50;101171.30;104689;1258;138858;-62
2024/02/20 05:39:01;;;;;;;2.40;1.50;;;;;;;6.02;83.49;101170.98;104866;1264;71976;-61
2024/02/20 05:41:30;;;;;;;2.10;1.70;;;;;;;6.03;83.39;101172.05;108711;1257;139012;-61
2024/02/20 05:43:58;;;;;;;1.90;1.40;;;;;;;6.02;83.31;101172.19;108883;1257;59822;-61
2024/02/20 05:46:29;;;;;;;2.50;1.40;;;;;;;5.99;83.19;101174.48;108838;1257;75949;-61
2024/02/20 05:48:55;;;;;;;2.20;1.00;;;;;;;5.97;83.21;101177.73;108841;1257;138266;-61
2024/02/20 05:51:25;;;;;;;1.60;1.00;;;;;;;5.98;83.24;101180.88;108895;1257;73106;-63
2024/02/20 05:53:52;;;;;;;1.00;0.90;;;;;;;5.97;83.25;101183.14;108712;1261;138900;-63
2024/02/20 05:56:19;;;;;;;1.10;1.00;;;;;;;5.99;83.27;101182.83;108869;1257;59550;-62
2024/02/20 05:58:46;;;;;;;2.40;1.20;;;;;;;6.03;83.27;101182.00;108839;1257;138464;-62
2024/02/20 06:01:14;;;;;;;1.50;1.10;;;;;;;6.08;83.35;101186.76;108965;1257;64930;-63
2024/02/20 06:03:42;;;;;;;2.00;1.00;;;;;;;6.11;83.34;101190.93;108926;1256;72446;-64
2024/02/20 06:06:08;;;;;;;2.40;0.90;;;;;;;6.13;83.29;101189.65;108821;1255;138399;-64
2024/02/20 06:08:35;;;;;;;1.50;1.20;;;;;;;6.17;83.34;101190.02;108951;1257;61417;-63
2024/02/20 06:11:02;;;;;;;1.40;0.90;;;;;;;6.20;83.30;101191.23;108787;1258;139135;-63
2024/02/20 06:13:29;;;;;;;3.20;1.10;;;;;;;6.23;83.23;101194.88;106984;1257;66278;-62
2024/02/20 06:15:56;;;;;;;3.90;1.30;;;;;;;6.25;83.20;101197.92;104930;1258;73015;-63
2024/02/20 06:18:22;;;;;;;1.70;1.20;;;;;;;6.26;83.20;101199.00;104781;1257;138558;-63
2024/02/20 06:20:49;;;;;;;2.00;1.20;;;;;;;6.25;83.21;101201.04;104770;1259;61317;-63
2024/02/20 06:23:16;;;;;;;1.90;1.30;;;;;;;6.25;83.28;101201.39;105034;1261;139134;-62
2024/02/20 06:25:44;;;;;;;2.60;1.30;;;;;;;6.27;83.35;101204.06;104978;1260;66494;-62
2024/02/20 06:28:13;;;;;;;3.10;1.50;;;;;;;6.24;83.34;101202.55;104923;1257;73320;-63
2024/02/20 06:30:41;;;;;;;3.50;1.30;;;;;;;6.23;83.45;101205.81;104878;1260;137847;-62
2024/02/20 06:33:08;;;;;;;1.90;1.30;;;;;;;6.22;83.43;101209.08;105016;1260;61253;-69
2024/02/20 06:35:34;;;;;;;2.10;1.20;;;;;;;6.22;83.67;101212.24;104892;1260;137652;-68
2024/02/20 06:38:01;;;;;;;1.90;1.30;;;;;;;6.21;83.55;101209.39;104882;1260;66484;-62
2024/02/20 06:40:28;;;;;;;2.10;1.40;;;;;;;6.20;83.52;101215.94;104829;1258;73678;-63
2024/02/20 06:42:55;;;;;;;2.40;1.50;;;;;;;6.19;83.67;101218.51;104660;1258;138134;-63
2024/02/20 06:45:22;;;;;;;2.30;1.40;;;;;;;6.20;83.73;101220.30;104795;1257;61449;-63
2024/02/20 06:47:48;;;;;;;2.40;1.80;;;;;;;6.19;83.58;101222.02;104746;1260;138212;-63
2024/02/20 06:50:16;;;;;;;1.80;1.30;;;;;;;6.21;83.88;101224.38;104817;1261;66903;-62
2024/02/20 06:52:46;;;;;;;2.60;1.30;;;;;;;6.22;83.79;101227.23;104774;1258;138729;-61
2024/02/20 06:55:13;;;;;;;2.80;1.40;;;;;;;6.24;83.83;101230.10;106042;1257;61663;-63
2024/02/20 06:57:39;;;;;;;3.00;1.40;;;;;;;6.27;83.93;101234.06;104692;1260;61183;-63
2024/02/20 07:00:14;;;;;;;2.20;1.30;;;;;;;6.31;84.00;101237.95;104777;1257;138497;-63
2024/02/20 07:02:41;;;;;;;2.00;1.40;;;;;;;6.39;84.03;101236.92;106461;1259;66894;-64
2024/02/20 07:05:10;;;;;;;2.70;1.40;;;;;;;6.43;83.89;101240.98;108877;1256;138622;-63
2024/02/20 07:07:37;;;;;;;2.10;1.20;;;;;;;6.48;83.98;101245.23;106420;1257;61433;-64
2024/02/20 07:10:06;;;;;;;3.10;1.50;;;;;;;6.56;84.06;101246.52;108945;1260;59846;-63
2024/02/20 07:12:33;;;;;;;3.50;1.90;;;;;;;6.63;83.72;101245.44;108806;1256;138638;-62
2024/02/20 07:15:07;;;;;;;3.00;1.70;;;;;;;6.69;83.76;101245.70;108950;1257;65224;-63
2024/02/20 07:17:34;;;;;;;3.50;1.70;;;;;;;6.72;83.39;101251.82;108766;1257;138199;-63
2024/02/20 07:20:02;;;;;;;3.20;1.80;;;;;;;6.73;83.19;101248.71;108816;1257;58963;-63
2024/02/20 07:22:32;;;;;;;2.70;1.70;;;;;;;6.71;83.05;101249.50;108894;1257;60938;-63
2024/02/20 07:24:59;;;;;;;2.80;1.90;;;;;;;6.73;83.03;101250.67;108774;1257;138932;-63
2024/02/20 07:27:26;;;;;;;4.50;2.90;;;;;;;6.77;82.88;101252.39;108866;1257;67640;-63
2024/02/20 07:29:53;;;;;;;7.20;2.80;;;;;;;6.79;82.93;101249.39;108749;1257;138313;-63
2024/02/20 07:32:19;;;;;;;2.70;1.70;;;;;;;6.85;82.90;101249.98;108829;1257;59582;-62
2024/02/20 07:34:48;;;;;;;2.60;1.40;;;;;;;6.89;82.82;101250.17;108809;1257;138454;-68
2024/02/20 07:37:15;;;;;;;2.10;1.40;;;;;;;6.90;82.49;101257.73;105786;1256;73524;-69
2024/02/20 07:39:42;;;;;;;3.50;1.50;;;;;;;6.91;82.51;101255.68;105039;1260;66810;-69
2024/02/20 07:42:08;;;;;;;2.60;1.80;;;;;;;6.91;82.44;101257.27;104834;1258;138348;-69
2024/02/20 07:44:35;;;;;;;2.70;1.80;;;;;;;6.93;82.50;101262.59;104800;1258;61249;-70
2024/02/20 07:47:02;;;;;;;3.00;1.60;;;;;;;6.95;82.38;101262.51;104673;1258;137878;-69
2024/02/20 07:49:29;;;;;;;4.50;1.90;;;;;;;6.98;82.38;101265.98;105048;1258;74323;-69
2024/02/20 07:51:56;;;;;;;3.10;2.00;;;;;;;7.07;82.42;101264.46;105021;1260;66594;-69
2024/02/20 07:54:22;;;;;;;3.80;2.20;;;;;;;7.12;82.23;101261.56;104820;1260;138147;-70
2024/02/20 07:56:49;;;;;;;4.10;1.90;;;;;;;7.17;82.16;101262.30;104850;1259;61281;-70
2024/02/20 07:59:16;;;;;;;2.30;1.70;;;;;;;7.19;81.83;101263.67;104913;1257;138630;-69
2024/02/20 08:01:50;;;;;;;3.00;2.20;;;;;;;7.23;81.63;101263.83;104871;1255;72722;-69
2024/02/20 08:04:17;;;;;;;2.10;1.40;;;;;;;7.32;81.69;101259.73;104800;1258;66008;-69
2024/02/20 08:06:44;;;;;;;2.60;1.70;;;;;;;7.47;81.63;101259.86;104877;1258;138325;-69
2024/02/20 08:09:11;;;;;;;1.30;1.20;;;;;;;7.58;81.52;101256.86;104974;1257;61483;-69
2024/02/20 08:11:38;;;;;;;2.00;1.10;;;;;;;7.67;81.14;101260.08;104717;1257;138357;-69
2024/02/20 08:14:05;;;;;;;1.80;1.30;;;;;;;7.65;80.75;101262.95;104847;1260;72484;-70
2024/02/20 08:16:32;;;;;;;1.90;1.30;;;;;;;7.64;80.59;101262.21;104857;1258;65385;-69
2024/02/20 08:19:00;;;;;;;1.90;1.30;;;;;;;7.65;80.52;101263.62;104787;1257;138604;-69
2024/02/20 08:21:27;;;;;;;2.20;1.20;;;;;;;7.61;80.12;101261.00;104830;1257;61579;-69
2024/02/20 08:23:54;;;;;;;2.90;1.40;;;;;;;7.51;79.90;101262.99;104795;1257;138497;-69
2024/02/20 08:26:21;;;;;;;1.70;1.10;;;;;;;7.41;79.82;101265.01;104833;1259;75154;-69
2024/02/20 08:28:47;;;;;;;2.50;1.40;;;;;;;7.38;79.89;101268.20;104715;1260;138878;-68
2024/02/20 08:31:18;;;;;;;4.60;2.10;;;;;;;7.39;79.94;101268.58;104785;1260;73073;-72
2024/02/20 08:33:46;;;;;;;3.20;1.80;;;;;;;7.49;80.32;101268.52;104976;1257;61376;-69
2024/02/20 08:36:13;;;;;;;2.30;1.50;;;;;;;7.63;80.22;101269.30;105239;1260;138158;-69
2024/02/20 08:38:40;;;;;;;3.60;1.50;;;;;;;7.71;80.01;101270.21;104987;1260;73632;-69
2024/02/20 08:41:06;;;;;;;2.50;1.40;;;;;;;7.70;79.40;101269.48;104791;1256;138511;-69
2024/02/20 08:43:33;;;;;;;3.60;2.30;;;;;;;7.63;79.22;101273.17;105037;1260;72216;-69
2024/02/20 08:46:00;;;;;;;7.20;5.20;;;;;;;7.59;79.37;101270.71;104978;1257;61381;-69
2024/02/20 08:48:27;;;;;;;3.80;1.70;;;;;;;7.68;79.61;101273.90;104807;1258;138560;-69
2024/02/20 08:50:53;;;;;;;5.10;2.60;;;;;;;7.83;79.75;101273.04;104797;1257;74104;-69
2024/02/20 08:53:20;;;;;;;2.40;1.70;;;;;;;8.08;79.87;101281.12;104722;1260;138722;-68
2024/02/20 08:55:47;;;;;;;4.20;1.50;;;;;;;8.22;79.42;101277.13;104883;1256;72191;-70
2024/02/20 08:58:14;;;;;;;1.80;1.40;;;;;;;8.29;79.05;101273.77;104817;1260;61353;-69
2024/02/20 09:00:40;;;;;;;3.00;1.70;;;;;;;8.36;78.88;101276.52;104762;1257;137644;-69
2024/02/20 09:03:09;;;;;;;3.00;1.50;;;;;;;8.50;79.03;101277.31;104751;1260;75424;-69
2024/02/20 09:05:36;;;;;;;2.90;1.50;;;;;;;8.67;78.94;101280.64;104924;1260;137944;-70
2024/02/20 09:08:04;;;;;;;1.80;1.40;;;;;;;8.82;78.68;101284.38;104739;1257;72263;-69
2024/02/20 09:10:30;;;;;;;3.20;1.90;;;;;;;8.89;78.39;101285.41;108961;1256;59571;-69
2024/02/20 09:12:57;;;;;;;1.90;1.30;;;;;;;8.87;77.58;101288.98;108823;1256;138586;-70
2024/02/20 09:15:24;;;;;;;2.30;1.50;;;;;;;8.67;76.90;101295.00;108784;1257;72859;-69
2024/02/20 09:17:50;;;;;;;3.70;1.70;;;;;;;8.53;76.93;101289.52;104693;1261;138792;-69
2024/02/20 09:20:17;;;;;;;4.10;2.00;;;;;;;8.40;76.80;101294.00;104854;1261;73362;-69
2024/02/20 09:22:44;;;;;;;3.10;1.90;;;;;;;8.36;77.11;101301.16;104865;1261;137945;-68
2024/02/20 09:25:10;;;;;;;2.60;1.50;;;;;;;8.37;76.74;101310.68;105104;1260;62136;-69
2024/02/20 09:27:37;;;;;;;3.10;1.80;;;;;;;8.33;76.89;101313.47;104865;1259;73847;-68
2024/02/20 09:30:05;;;;;;;2.00;1.20;;;;;;;8.31;76.97;101313.89;104990;1261;138100;-70
2024/02/20 09:32:32;;;;;;;2.60;1.10;;;;;;;8.24;76.74;101314.67;104921;1259;71726;-69
2024/02/20 09:34:59;;;;;;;2.60;1.30;;;;;;;8.31;77.29;101320.71;104868;1256;138607;-68
2024/02/20 09:37:26;;;;;;;2.40;1.40;;;;;;;8.53;77.51;101316.77;105035;1260;61290;-69
2024/02/20 09:39:53;;;;;;;2.00;1.20;;;;;;;8.71;77.18;101321.92;104821;1257;74461;-69
2024/02/20 09:42:24;;;;;;;2.30;1.20;;;;;;;8.81;76.79;101318.99;104627;1257;138081;-70
2024/02/20 09:44:52;;;;;;;1.60;1.10;;;;;;;8.91;76.61;101323.29;104966;1257;73554;-70
2024/02/20 09:47:19;;;;;;;2.40;1.30;;;;;;;9.07;76.45;101325.30;104885;1260;138513;-69
2024/02/20 09:49:48;;;;;;;1.30;1.00;;;;;;;9.15;75.82;101330.55;104907;1260;61243;-69
2024/02/20 09:52:14;;;;;;;2.70;1.80;;;;;;;9.11;75.48;101327.05;107394;1256;74942;-69
2024/02/20 09:54:43;;;;;;;3.30;1.60;;;;;;;9.13;75.33;101333.45;104803;1257;137718;-69
2024/02/20 09:57:10;;;;;;;1.50;1.30;;;;;;;9.09;75.15;101333.85;106299;1258;72642;-69
2024/02/20 09:59:36;;;;;;;1.30;1.00;;;;;;;9.06;75.04;101330.72;104737;1257;137674;-69
2024/02/20 10:02:03;;;;;;;2.40;1.70;;;;;;;9.11;75.06;101333.19;104900;1257;61427;-69
2024/02/20 10:04:33;;;;;;;1.70;1.40;;;;;;;9.15;75.09;101333.17;104793;1256;74560;-69
2024/02/20 10:07:03;;;;;;;1.50;1.20;;;;;;;9.23;75.08;101330.86;107006;1257;137347;-69
2024/02/20 10:09:33;;;;;;;1.40;1.10;;;;;;;9.28;75.00;101331.94;108877;1257;72693;-69
2024/02/20 10:12:00;;;;;;;2.30;1.40;;;;;;;9.28;74.59;101330.52;106200;1256;138194;-70
2024/02/20 10:14:27;;;;;;;2.40;1.10;;;;;;;9.39;74.88;101329.54;104840;1260;61254;-69
2024/02/20 10:17:03;;;;;;;2.70;1.10;;;;;;;9.45;74.52;101333.48;107872;1257;138990;-70
2024/02/20 10:19:30;;;;;;;1.30;0.90;;;;;;;9.46;74.41;101329.15;104838;1257;65652;-70
2024/02/20 10:21:58;;;;;;;2.30;1.40;;;;;;;9.45;74.11;101329.80;104676;1257;70679;-69
2024/02/20 10:24:25;;;;;;;3.20;1.40;;;;;;;9.34;73.66;101337.58;104713;1257;137876;-69
2024/02/20 10:26:52;;;;;;;1.70;1.20;;;;;;;9.20;73.81;101338.44;104825;1257;61375;-70
2024/02/20 10:29:19;;;;;;;2.00;1.30;;;;;;;9.17;74.01;101336.39;104847;1259;138808;-69
2024/02/20 10:31:46;;;;;;;2.30;1.50;;;;;;;9.14;73.88;101340.13;104826;1256;65548;-69
2024/02/20 10:34:19;;;;;;;1.80;1.30;;;;;;;9.10;73.95;101336.47;104831;1256;71883;-69
2024/02/20 10:36:45;;;;;;;2.50;1.60;;;;;;;9.22;74.32;101334.52;105218;1258;137919;-69
2024/02/20 10:39:12;;;;;;;3.70;1.40;;;;;;;9.41;74.39;101333.16;104922;1258;61284;-70
2024/02/20 10:41:39;;;;;;;1.80;1.20;;;;;;;9.48;73.87;101330.42;104601;1257;189982;-69
2024/02/20 10:44:05;;;;;;;2.90;1.20;;;;;;;9.43;73.32;101330.43;104849;1257;65502;-69
2024/02/20 10:46:37;;;;;;;4.20;2.80;;;;;;;9.19;72.46;101330.69;104790;1261;73700;-69
2024/02/20 10:49:33;;;;;;;4.00;1.60;;;;;;;9.04;73.08;101327.84;104814;1258;137934;-69
2024/02/20 10:52:04;;;;;;;2.50;1.40;;;;;;;9.04;73.26;101331.30;107498;1255;60496;-62
2024/02/20 10:54:32;;;;;;;1.50;1.30;;;;;;;8.95;72.92;101331.30;108841;1255;138483;-63
2024/02/20 10:56:58;;;;;;;2.40;1.10;;;;;;;8.84;72.87;101327.17;105258;1256;65443;-63
2024/02/20 10:59:25;;;;;;;2.70;1.40;;;;;;;8.74;72.82;101330.98;104914;1260;138147;-69
2024/02/20 11:01:52;;;;;;;3.20;1.80;;;;;;;8.65;72.82;101325.70;104723;1257;61341;-69
2024/02/20 11:04:18;;;;;;;5.30;2.30;;;;;;;8.60;73.18;101323.20;104859;1260;61222;-69
2024/02/20 11:06:48;;;;;;;3.80;1.70;;;;;;;8.62;73.35;101327.34;104720;1256;138261;-63
2024/02/20 11:09:15;;;;;;;2.90;1.60;;;;;;;8.59;73.20;101326.66;108957;1257;66159;-64
2024/02/20 11:11:41;;;;;;;7.00;2.00;;;;;;;8.50;72.95;101330.82;105688;1258;137953;-63
2024/02/20 11:14:08;;;;;;;3.40;1.80;;;;;;;8.44;73.27;101329.89;104705;1258;61463;-68
2024/02/20 11:16:36;;;;;;;3.20;1.80;;;;;;;8.48;73.45;101333.75;104730;1256;61260;-69
2024/02/20 11:19:06;;;;;;;3.00;1.40;;;;;;;8.47;73.20;101336.30;104966;1260;139153;-63
2024/02/20 11:21:33;;;;;;;1.50;1.10;;;;;;;8.48;73.28;101337.23;105040;1261;66771;-69